Time;durP1;ratioP1;P1;durP2;ratioP2;P2;SDS_P1;SDS_P2;PMS_P1;PMS_P2;Temp;Humidity;BMP_temperature;BMP_pressure;BME280_temperature;BME280_humidity;BME280_pressure;Samples;Min_cycle;Max_cycle;Signal;HPM_P1;HPM_P2
2023/06/15 00:01:06;;;;;;;0.08;0.00;;;;;;;;;;5032761;28;20022;-73
2023/06/15 00:03:31;;;;;;;0.00;0.00;;;;;;;;;;5033783;28;20029;-73
2023/06/15 00:05:57;;;;;;;0.00;0.00;;;;;;;;;;5035742;28;20044;-74
2023/06/15 00:08:22;;;;;;;0.13;0.13;;;;;;;;;;5034137;28;20026;-78
2023/06/15 00:10:48;;;;;;;0.38;0.38;;;;;;;;;;5031316;28;20040;-77
2023/06/15 00:13:15;;;;;;;0.10;0.10;;;;;;;;;;5031617;28;20120;-79
2023/06/15 00:15:40;;;;;;;0.10;0.10;;;;;;;;;;5036969;28;20088;-78
2023/06/15 00:18:06;;;;;;;0.00;0.00;;;;;;;;;;5033252;28;20048;-73
2023/06/15 00:20:32;;;;;;;0.03;0.03;;;;;;;;;;5031412;28;20021;-74
2023/06/15 00:22:59;;;;;;;0.10;0.05;;;;;;;;;;5033438;28;20040;-76
2023/06/15 00:25:27;;;;;;;0.00;0.00;;;;;;;;;;5032120;28;20041;-76
2023/06/15 00:27:52;;;;;;;0.00;0.00;;;;;;;;;;5030983;28;20048;-73
2023/06/15 00:30:18;;;;;;;0.00;0.00;;;;;;;;;;5031082;28;20025;-73
2023/06/15 00:32:44;;;;;;;0.25;0.25;;;;;;;;;;5032786;28;20022;-73
2023/06/15 00:35:09;;;;;;;0.17;0.17;;;;;;;;;;5031160;28;20025;-74
2023/06/15 00:37:35;;;;;;;0.28;0.20;;;;;;;;;;5040831;28;20025;-72
2023/06/15 00:40:00;;;;;;;0.00;0.00;;;;;;;;;;5033542;28;20082;-73
2023/06/15 00:42:29;;;;;;;0.00;0.00;;;;;;;;;;5031970;28;20658;-73
2023/06/15 00:44:55;;;;;;;0.15;0.15;;;;;;;;;;5034681;28;20512;-73
2023/06/15 00:47:21;;;;;;;0.15;0.03;;;;;;;;;;5029883;28;20029;-74
2023/06/15 00:49:48;;;;;;;0.10;0.10;;;;;;;;;;5033025;28;20109;-73
2023/06/15 00:52:16;;;;;;;0.20;0.20;;;;;;;;;;5037862;28;20356;-73
2023/06/15 00:54:43;;;;;;;0.00;0.00;;;;;;;;;;5030660;28;20030;-73
2023/06/15 00:57:10;;;;;;;0.00;0.00;;;;;;;;;;5031044;28;20463;-74
2023/06/15 00:59:37;;;;;;;0.00;0.00;;;;;;;;;;5031108;28;20057;-76
2023/06/15 01:02:03;;;;;;;0.10;0.10;;;;;;;;;;5030783;28;20030;-73
2023/06/15 01:04:29;;;;;;;0.00;0.00;;;;;;;;;;5032001;28;20029;-73
2023/06/15 01:07:02;;;;;;;0.05;0.05;;;;;;;;;;5034955;28;20218;-72
2023/06/15 01:09:29;;;;;;;0.50;0.50;;;;;;;;;;5032517;28;20021;-74
2023/06/15 01:12:00;;;;;;;0.10;0.10;;;;;;;;;;5031179;28;20025;-73
2023/06/15 01:14:30;;;;;;;0.00;0.00;;;;;;;;;;5030761;28;20071;-73
2023/06/15 01:17:00;;;;;;;0.17;0.15;;;;;;;;;;5034485;28;20032;-73
2023/06/15 01:19:40;;;;;;;0.10;0.10;;;;;;;;;;5030463;28;20026;-74
2023/06/15 01:22:19;;;;;;;0.00;0.00;;;;;;;;;;5029734;28;20163;-73
2023/06/15 01:24:51;;;;;;;0.00;0.00;;;;;;;;;;5034086;28;20041;-72
2023/06/15 01:27:18;;;;;;;0.10;0.10;;;;;;;;;;5029867;28;20029;-74
2023/06/15 01:29:44;;;;;;;0.05;0.05;;;;;;;;;;5031911;28;20718;-73
2023/06/15 01:32:10;;;;;;;0.10;0.00;;;;;;;;;;5032551;28;20104;-73
2023/06/15 01:34:36;;;;;;;0.00;0.00;;;;;;;;;;5033948;28;20048;-73
2023/06/15 01:37:02;;;;;;;0.03;0.03;;;;;;;;;;5037185;28;20021;-74
2023/06/15 01:39:28;;;;;;;0.00;0.00;;;;;;;;;;5030489;28;20432;-73
2023/06/15 01:41:54;;;;;;;0.00;0.00;;;;;;;;;;5029629;28;20026;-75
2023/06/15 01:44:20;;;;;;;0.00;0.00;;;;;;;;;;5062966;28;20314;-74
2023/06/15 01:46:46;;;;;;;0.03;0.03;;;;;;;;;;5029440;28;20066;-73
2023/06/15 01:49:12;;;;;;;0.00;0.00;;;;;;;;;;5031289;28;20191;-73
2023/06/15 01:51:37;;;;;;;0.10;0.10;;;;;;;;;;5029672;28;20044;-74
2023/06/15 01:54:03;;;;;;;0.15;0.10;;;;;;;;;;5029829;28;20030;-73
2023/06/15 01:56:28;;;;;;;0.10;0.10;;;;;;;;;;5030886;28;20021;-73
2023/06/15 01:58:54;;;;;;;0.20;0.10;;;;;;;;;;5029250;28;20021;-73
2023/06/15 02:01:19;;;;;;;0.00;0.00;;;;;;;;;;5029321;28;20103;-74
2023/06/15 02:03:45;;;;;;;0.30;0.30;;;;;;;;;;5029525;28;20671;-73
2023/06/15 02:06:10;;;;;;;0.15;0.15;;;;;;;;;;5033932;28;20237;-75
2023/06/15 02:08:36;;;;;;;0.00;0.00;;;;;;;;;;5032122;28;20032;-73
2023/06/15 02:11:04;;;;;;;0.00;0.00;;;;;;;;;;5030024;28;20104;-75
2023/06/15 02:13:30;;;;;;;0.10;0.10;;;;;;;;;;5029912;28;20033;-73
2023/06/15 02:15:55;;;;;;;0.00;0.00;;;;;;;;;;5029736;28;20079;-72
2023/06/15 02:18:21;;;;;;;0.00;0.00;;;;;;;;;;5029616;28;20478;-73
2023/06/15 02:20:46;;;;;;;0.22;0.22;;;;;;;;;;5032153;28;20046;-75
2023/06/15 02:23:12;;;;;;;0.20;0.20;;;;;;;;;;5037976;28;20029;-73
2023/06/15 02:25:38;;;;;;;0.00;0.00;;;;;;;;;;5032209;28;20021;-74
2023/06/15 02:28:04;;;;;;;0.00;0.00;;;;;;;;;;5031229;28;20578;-73
2023/06/15 02:30:29;;;;;;;0.20;0.20;;;;;;;;;;5029744;28;20156;-73
2023/06/15 02:33:00;;;;;;;0.00;0.00;;;;;;;;;;5032590;28;20033;-73
2023/06/15 02:35:25;;;;;;;0.05;0.05;;;;;;;;;;5029845;28;20042;-73
2023/06/15 02:37:51;;;;;;;0.08;0.08;;;;;;;;;;5030965;28;20128;-73
2023/06/15 02:40:16;;;;;;;0.00;0.00;;;;;;;;;;5029812;28;20025;-74
2023/06/15 02:42:42;;;;;;;0.00;0.00;;;;;;;;;;5029634;28;20034;-74
2023/06/15 02:45:08;;;;;;;0.00;0.00;;;;;;;;;;5029923;28;20309;-72
2023/06/15 02:47:37;;;;;;;0.10;0.03;;;;;;;;;;5031721;28;20029;-78
2023/06/15 02:50:07;;;;;;;0.03;0.03;;;;;;;;;;5030395;28;20104;-74
2023/06/15 02:52:36;;;;;;;0.00;0.00;;;;;;;;;;5034490;28;20045;-75
2023/06/15 02:55:02;;;;;;;0.00;0.00;;;;;;;;;;5032148;28;20025;-73
2023/06/15 02:57:28;;;;;;;0.00;0.00;;;;;;;;;;5030744;28;20439;-74
2023/06/15 02:59:54;;;;;;;0.17;0.17;;;;;;;;;;5034012;28;20026;-73
2023/06/15 03:02:21;;;;;;;0.25;0.20;;;;;;;;;;5032738;28;20033;-73
2023/06/15 03:04:48;;;;;;;0.10;0.00;;;;;;;;;;5038356;28;20037;-75
2023/06/15 03:07:16;;;;;;;0.10;0.10;;;;;;;;;;5038831;28;20026;-77
2023/06/15 03:09:46;;;;;;;0.00;0.00;;;;;;;;;;5033633;28;20053;-73
2023/06/15 03:12:11;;;;;;;0.00;0.00;;;;;;;;;;5033426;28;20097;-74
2023/06/15 03:14:37;;;;;;;0.15;0.15;;;;;;;;;;5036323;28;20053;-78
2023/06/15 03:17:04;;;;;;;0.00;0.00;;;;;;;;;;5034906;28;20049;-74
2023/06/15 03:19:30;;;;;;;0.10;0.10;;;;;;;;;;5037924;28;20033;-73
2023/06/15 03:21:58;;;;;;;0.03;0.03;;;;;;;;;;5035161;28;20168;-73
2023/06/15 03:24:25;;;;;;;0.00;0.00;;;;;;;;;;5032466;28;20033;-76
2023/06/15 03:26:51;;;;;;;0.03;0.03;;;;;;;;;;5033120;28;20409;-73
2023/06/15 03:29:16;;;;;;;0.05;0.05;;;;;;;;;;5034419;28;20433;-73
2023/06/15 03:31:42;;;;;;;0.00;0.00;;;;;;;;;;5033113;28;20092;-74
2023/06/15 03:34:08;;;;;;;0.20;0.10;;;;;;;;;;5038060;28;20029;-75
2023/06/15 03:36:35;;;;;;;0.00;0.00;;;;;;;;;;5039272;28;20025;-74
2023/06/15 03:39:01;;;;;;;0.00;0.00;;;;;;;;;;5035842;28;20479;-73
2023/06/15 03:41:27;;;;;;;0.20;0.20;;;;;;;;;;5034299;28;20060;-73
2023/06/15 03:43:52;;;;;;;0.10;0.10;;;;;;;;;;5033465;28;20061;-72
2023/06/15 03:46:18;;;;;;;0.00;0.00;;;;;;;;;;5033239;28;20112;-73
2023/06/15 03:48:44;;;;;;;0.15;0.15;;;;;;;;;;5032165;28;20462;-72
2023/06/15 03:51:09;;;;;;;0.08;0.08;;;;;;;;;;5033125;28;20057;-73
2023/06/15 03:53:36;;;;;;;0.00;0.00;;;;;;;;;;5036724;28;20430;-75
2023/06/15 03:56:02;;;;;;;0.10;0.00;;;;;;;;;;5038281;28;20044;-73
2023/06/15 03:58:27;;;;;;;0.22;0.20;;;;;;;;;;5034912;28;20025;-73
2023/06/15 04:00:53;;;;;;;0.00;0.00;;;;;;;;;;5034144;28;20040;-78
2023/06/15 04:03:19;;;;;;;0.10;0.03;;;;;;;;;;5033448;28;20032;-73
2023/06/15 04:05:45;;;;;;;0.30;0.15;;;;;;;;;;5039136;28;20623;-79
2023/06/15 04:08:11;;;;;;;0.30;0.30;;;;;;;;;;5031854;28;20033;-79
2023/06/15 04:10:36;;;;;;;0.00;0.00;;;;;;;;;;5030521;28;20025;-76
2023/06/15 04:13:01;;;;;;;0.10;0.10;;;;;;;;;;5031864;28;20037;-72
2023/06/15 04:15:27;;;;;;;0.10;0.10;;;;;;;;;;5033267;28;20033;-73
2023/06/15 04:17:52;;;;;;;0.22;0.22;;;;;;;;;;5034992;28;20033;-73
2023/06/15 04:20:19;;;;;;;0.10;0.10;;;;;;;;;;5033819;28;20104;-73
2023/06/15 04:22:45;;;;;;;0.03;0.03;;;;;;;;;;5050401;28;20108;-75
2023/06/15 04:25:10;;;;;;;0.00;0.00;;;;;;;;;;5032634;28;20061;-77
2023/06/15 04:27:36;;;;;;;0.10;0.10;;;;;;;;;;5036928;28;20030;-73
2023/06/15 04:30:03;;;;;;;0.00;0.00;;;;;;;;;;5034927;28;20029;-73
2023/06/15 04:32:30;;;;;;;0.00;0.00;;;;;;;;;;5034960;28;20309;-72
2023/06/15 04:34:59;;;;;;;0.10;0.10;;;;;;;;;;5031854;28;20032;-73
2023/06/15 04:37:28;;;;;;;0.17;0.17;;;;;;;;;;5040118;28;20029;-76
2023/06/15 04:39:59;;;;;;;0.08;0.08;;;;;;;;;;5036135;28;20033;-73
2023/06/15 04:42:24;;;;;;;;;;;;;;;;;;5034974;28;20104;-72
2023/06/15 04:44:50;;;;;;;0.00;0.00;;;;;;;;;;5032044;28;19913;-73
2023/06/15 04:47:16;;;;;;;0.15;0.08;;;;;;;;;;5031194;28;20685;-73
2023/06/15 04:49:44;;;;;;;0.00;0.00;;;;;;;;;;5038138;28;20029;-77
2023/06/15 04:52:10;;;;;;;0.00;0.00;;;;;;;;;;5048099;28;20133;-74
2023/06/15 04:54:36;;;;;;;0.22;0.22;;;;;;;;;;5050601;28;20038;-73
2023/06/15 04:57:02;;;;;;;0.00;0.00;;;;;;;;;;5034973;28;20067;-78
2023/06/15 04:59:27;;;;;;;0.10;0.10;;;;;;;;;;5038911;28;20025;-78
2023/06/15 05:01:53;;;;;;;0.65;0.25;;;;;;;;;;5032209;28;20021;-79
2023/06/15 05:04:21;;;;;;;0.00;0.00;;;;;;;;;;5030541;28;20029;-78
2023/06/15 05:06:47;;;;;;;0.10;0.10;;;;;;;;;;5033187;28;20676;-77
2023/06/15 05:09:15;;;;;;;0.08;0.08;;;;;;;;;;5031025;28;20022;-78
2023/06/15 05:11:41;;;;;;;0.03;0.03;;;;;;;;;;5030846;28;20116;-74
2023/06/15 05:14:06;;;;;;;0.00;0.00;;;;;;;;;;5031155;28;20112;-73
2023/06/15 05:16:32;;;;;;;0.00;0.00;;;;;;;;;;5033995;28;20355;-77
2023/06/15 05:18:57;;;;;;;0.05;0.05;;;;;;;;;;5032263;28;20029;-75
2023/06/15 05:21:22;;;;;;;0.00;0.00;;;;;;;;;;5032409;28;20064;-73
2023/06/15 05:23:48;;;;;;;0.00;0.00;;;;;;;;;;5032333;28;20273;-73
2023/06/15 05:26:17;;;;;;;0.00;0.00;;;;;;;;;;5031587;28;20021;-76
2023/06/15 05:28:42;;;;;;;0.20;0.15;;;;;;;;;;5036744;28;20017;-72
2023/06/15 05:31:08;;;;;;;0.10;0.10;;;;;;;;;;5032867;28;20022;-73
2023/06/15 05:33:35;;;;;;;0.20;0.20;;;;;;;;;;5034632;28;20029;-72
2023/06/15 05:36:00;;;;;;;0.10;0.10;;;;;;;;;;5036018;28;20025;-74
2023/06/15 05:38:26;;;;;;;0.30;0.30;;;;;;;;;;5036580;28;20254;-73
2023/06/15 05:40:51;;;;;;;0.00;0.00;;;;;;;;;;5034925;28;20045;-72
2023/06/15 05:43:17;;;;;;;0.00;0.00;;;;;;;;;;5033293;28;20025;-73
2023/06/15 05:45:42;;;;;;;0.10;0.10;;;;;;;;;;5033414;28;20568;-74
2023/06/15 05:48:08;;;;;;;0.05;0.05;;;;;;;;;;5035516;28;20025;-73
2023/06/15 05:50:35;;;;;;;0.00;0.00;;;;;;;;;;5052226;28;20492;-73
2023/06/15 05:53:00;;;;;;;0.00;0.00;;;;;;;;;;5031396;28;20202;-75
2023/06/15 05:55:26;;;;;;;0.10;0.10;;;;;;;;;;5031718;28;20465;-73
2023/06/15 05:57:51;;;;;;;0.00;0.00;;;;;;;;;;5029805;28;20076;-73
2023/06/15 06:00:17;;;;;;;0.00;0.00;;;;;;;;;;5031611;28;20058;-76
2023/06/15 06:02:42;;;;;;;0.15;0.15;;;;;;;;;;5035313;28;20097;-74
2023/06/15 06:05:08;;;;;;;0.00;0.00;;;;;;;;;;5034809;28;20441;-75
2023/06/15 06:07:33;;;;;;;0.08;0.08;;;;;;;;;;5030465;28;20104;-77
2023/06/15 06:09:59;;;;;;;0.00;0.00;;;;;;;;;;5029088;28;20017;-71
2023/06/15 06:12:24;;;;;;;0.15;0.15;;;;;;;;;;5029812;28;20033;-71
2023/06/15 06:14:49;;;;;;;0.05;0.05;;;;;;;;;;5029436;28;20033;-76
2023/06/15 06:17:15;;;;;;;0.10;0.00;;;;;;;;;;5030887;28;20036;-75
2023/06/15 06:19:41;;;;;;;0.00;0.00;;;;;;;;;;5032089;28;20105;-72
2023/06/15 06:22:06;;;;;;;0.40;0.40;;;;;;;;;;5032246;28;20018;-72
2023/06/15 06:24:32;;;;;;;0.47;0.30;;;;;;;;;;5034507;28;20032;-73
2023/06/15 06:26:57;;;;;;;1.75;0.45;;;;;;;;;;5031037;28;20096;-72
2023/06/15 06:29:22;;;;;;;0.00;0.00;;;;;;;;;;5033476;28;20108;-73
2023/06/15 06:31:48;;;;;;;0.10;0.10;;;;;;;;;;5031803;28;20018;-71
2023/06/15 06:34:13;;;;;;;0.10;0.10;;;;;;;;;;5033393;28;20029;-72
2023/06/15 06:36:39;;;;;;;0.00;0.00;;;;;;;;;;5049444;28;20085;-72
2023/06/15 06:39:04;;;;;;;0.00;0.00;;;;;;;;;;5041416;28;20038;-70
2023/06/15 06:41:31;;;;;;;0.00;0.00;;;;;;;;;;5037837;28;20088;-70
2023/06/15 06:43:56;;;;;;;0.05;0.05;;;;;;;;;;5044681;28;20041;-71
2023/06/15 06:46:22;;;;;;;0.00;0.00;;;;;;;;;;5039726;28;20091;-73
2023/06/15 06:48:49;;;;;;;0.13;0.13;;;;;;;;;;5044047;28;20029;-74
2023/06/15 06:51:15;;;;;;;0.00;0.00;;;;;;;;;;5043898;28;20041;-72
2023/06/15 06:53:40;;;;;;;0.10;0.10;;;;;;;;;;5041550;28;20021;-70
2023/06/15 06:56:06;;;;;;;0.20;0.20;;;;;;;;;;5043484;28;20026;-72
2023/06/15 06:58:31;;;;;;;0.38;0.38;;;;;;;;;;5041205;28;20025;-75
2023/06/15 07:00:57;;;;;;;0.20;0.20;;;;;;;;;;5034432;28;20473;-73
2023/06/15 07:03:22;;;;;;;0.00;0.00;;;;;;;;;;5038701;28;20093;-74
2023/06/15 07:05:48;;;;;;;0.17;0.17;;;;;;;;;;5042322;28;20092;-71
2023/06/15 07:08:13;;;;;;;0.85;0.52;;;;;;;;;;5035873;28;20108;-71
2023/06/15 07:10:38;;;;;;;0.10;0.10;;;;;;;;;;5035678;28;20022;-74
2023/06/15 07:13:04;;;;;;;0.05;0.05;;;;;;;;;;5033028;28;20026;-77
2023/06/15 07:15:31;;;;;;;0.05;0.05;;;;;;;;;;5033140;28;20036;-82
2023/06/15 07:17:57;;;;;;;0.00;0.00;;;;;;;;;;5034215;28;20033;-74
2023/06/15 07:20:26;;;;;;;0.00;0.00;;;;;;;;;;5034902;28;20113;-76
2023/06/15 07:22:51;;;;;;;0.13;0.13;;;;;;;;;;5035506;28;20025;-74
2023/06/15 07:25:16;;;;;;;0.00;0.00;;;;;;;;;;5033329;28;20034;-70
2023/06/15 07:27:42;;;;;;;0.10;0.10;;;;;;;;;;5039592;28;20025;-70
2023/06/15 07:30:08;;;;;;;0.20;0.15;;;;;;;;;;5051296;28;20021;-70
2023/06/15 07:32:33;;;;;;;0.10;0.10;;;;;;;;;;5035312;28;20033;-71
2023/06/15 07:34:58;;;;;;;0.10;0.10;;;;;;;;;;5033138;28;20038;-70
2023/06/15 07:37:24;;;;;;;0.30;0.22;;;;;;;;;;5039056;28;20030;-71
2023/06/15 07:39:49;;;;;;;0.13;0.13;;;;;;;;;;5035607;28;20045;-76
2023/06/15 07:42:15;;;;;;;0.00;0.00;;;;;;;;;;5040169;28;20104;-77
2023/06/15 07:44:40;;;;;;;0.08;0.08;;;;;;;;;;5036753;28;20025;-73
2023/06/15 07:47:07;;;;;;;0.03;0.03;;;;;;;;;;5034454;28;20025;-72
2023/06/15 07:49:33;;;;;;;0.15;0.13;;;;;;;;;;5036873;28;20375;-74
2023/06/15 07:51:58;;;;;;;0.00;0.00;;;;;;;;;;5047632;28;20045;-72
2023/06/15 07:54:24;;;;;;;0.28;0.28;;;;;;;;;;5031747;28;20108;-74
2023/06/15 07:56:49;;;;;;;0.55;0.52;;;;;;;;;;5036705;28;20137;-77
2023/06/15 07:59:15;;;;;;;0.17;0.17;;;;;;;;;;5037035;28;20021;-71
2023/06/15 08:01:40;;;;;;;0.13;0.13;;;;;;;;;;5034303;28;20033;-72
2023/06/15 08:04:06;;;;;;;0.60;0.60;;;;;;;;;;5036166;28;20037;-77
2023/06/15 08:06:31;;;;;;;0.32;0.32;;;;;;;;;;5033896;28;20033;-72
2023/06/15 08:08:57;;;;;;;0.10;0.10;;;;;;;;;;5041278;28;20021;-73
2023/06/15 08:11:22;;;;;;;0.20;0.20;;;;;;;;;;5037695;28;20029;-75
2023/06/15 08:13:48;;;;;;;0.28;0.25;;;;;;;;;;5037080;28;20329;-71
2023/06/15 08:16:13;;;;;;;1.15;0.17;;;;;;;;;;5035551;28;20013;-71
2023/06/15 08:18:39;;;;;;;0.03;0.03;;;;;;;;;;5035465;28;20084;-78
2023/06/15 08:21:05;;;;;;;0.30;0.30;;;;;;;;;;5041590;28;20037;-76
2023/06/15 08:23:30;;;;;;;0.20;0.20;;;;;;;;;;5040091;28;20089;-73
2023/06/15 08:25:56;;;;;;;0.50;0.40;;;;;;;;;;5038524;28;20044;-74
2023/06/15 08:28:21;;;;;;;0.63;0.55;;;;;;;;;;5037136;28;20049;-72
2023/06/15 08:30:47;;;;;;;0.52;0.52;;;;;;;;;;5036764;28;20205;-75
2023/06/15 08:33:13;;;;;;;0.10;0.10;;;;;;;;;;5034508;28;20025;-75
2023/06/15 08:35:39;;;;;;;0.13;0.13;;;;;;;;;;5040260;28;20049;-74
2023/06/15 08:38:04;;;;;;;1.10;0.50;;;;;;;;;;5051737;28;20018;-72
2023/06/15 08:40:30;;;;;;;0.57;0.57;;;;;;;;;;5037724;28;20032;-76
2023/06/15 08:42:56;;;;;;;0.32;0.32;;;;;;;;;;5038736;28;20025;-73
2023/06/15 08:45:23;;;;;;;0.40;0.40;;;;;;;;;;5037146;28;20032;-74
2023/06/15 08:47:52;;;;;;;0.22;0.22;;;;;;;;;;5037618;28;20033;-71
2023/06/15 08:50:18;;;;;;;0.28;0.28;;;;;;;;;;5037858;28;20045;-75
2023/06/15 08:52:45;;;;;;;0.30;0.30;;;;;;;;;;5039804;28;20079;-73
2023/06/15 08:55:12;;;;;;;0.38;0.38;;;;;;;;;;5037842;28;20493;-75
2023/06/15 08:57:37;;;;;;;0.40;0.40;;;;;;;;;;5041221;28;20033;-73
2023/06/15 09:00:09;;;;;;;0.38;0.38;;;;;;;;;;5035570;28;20132;-73
2023/06/15 09:02:40;;;;;;;0.47;0.47;;;;;;;;;;5030595;28;20557;-72
2023/06/15 09:05:06;;;;;;;0.50;0.50;;;;;;;;;;5038883;28;20044;-71
2023/06/15 09:07:32;;;;;;;0.20;0.20;;;;;;;;;;5037786;28;20034;-75
2023/06/15 09:10:14;;;;;;;0.32;0.32;;;;;;;;;;5035248;28;20058;-71
2023/06/15 09:12:53;;;;;;;0.55;0.55;;;;;;;;;;5036682;28;20029;-71
2023/06/15 09:15:27;;;;;;;0.13;0.13;;;;;;;;;;5036367;28;20113;-71
2023/06/15 09:18:01;;;;;;;0.50;0.50;;;;;;;;;;5033115;28;20036;-71
2023/06/15 09:20:31;;;;;;;0.50;0.35;;;;;;;;;;5037673;28;20037;-71
2023/06/15 09:22:59;;;;;;;0.35;0.35;;;;;;;;;;5034514;28;20033;-76
2023/06/15 09:25:24;;;;;;;2.40;0.45;;;;;;;;;;5036587;28;20200;-73
2023/06/15 09:27:58;;;;;;;0.52;0.52;;;;;;;;;;5032095;28;20442;-75
2023/06/15 09:30:37;;;;;;;0.47;0.35;;;;;;;;;;5038517;28;20029;-71
2023/06/15 09:33:16;;;;;;;0.30;0.30;;;;;;;;;;5035576;28;20056;-71
2023/06/15 09:36:11;;;;;;;0.00;0.00;;;;;;;;;;5038192;28;20033;-73
2023/06/15 09:38:41;;;;;;;0.55;0.55;;;;;;;;;;5030306;28;20038;-71
2023/06/15 09:41:07;;;;;;;;;;;;;;;;;;5047382;28;20447;-71
2023/06/15 09:43:34;;;;;;;0.20;0.20;;;;;;;;;;5036542;28;20319;-70
2023/06/15 09:46:01;;;;;;;0.57;0.30;;;;;;;;;;5032871;28;20029;-72
2023/06/15 09:48:30;;;;;;;0.40;0.28;;;;;;;;;;5032186;28;20033;-71
2023/06/15 09:51:00;;;;;;;0.57;0.57;;;;;;;;;;5029861;28;20132;-70
2023/06/15 09:53:28;;;;;;;0.15;0.15;;;;;;;;;;5030302;28;20079;-71
2023/06/15 09:55:54;;;;;;;0.32;0.32;;;;;;;;;;5036009;28;20092;-71
2023/06/15 09:58:19;;;;;;;0.30;0.30;;;;;;;;;;5037659;28;20033;-79
2023/06/15 10:00:47;;;;;;;0.52;0.52;;;;;;;;;;5033365;28;20032;-80
2023/06/15 10:03:18;;;;;;;0.40;0.40;;;;;;;;;;5034568;28;20026;-73
2023/06/15 10:05:46;;;;;;;0.70;0.68;;;;;;;;;;5030029;28;20296;-73
2023/06/15 10:08:14;;;;;;;0.20;0.20;;;;;;;;;;5030101;28;20021;-71
2023/06/15 10:10:42;;;;;;;0.90;0.88;;;;;;;;;;5036852;28;20083;-72
2023/06/15 10:13:20;;;;;;;0.70;0.65;;;;;;;;;;5032347;28;20125;-73
2023/06/15 10:15:51;;;;;;;0.85;0.73;;;;;;;;;;5034319;28;20137;-73
2023/06/15 10:18:20;;;;;;;0.77;0.32;;;;;;;;;;5031349;28;20057;-72
2023/06/15 10:20:48;;;;;;;1.13;0.88;;;;;;;;;;5032227;28;20021;-74
2023/06/15 10:23:17;;;;;;;1.13;1.02;;;;;;;;;;5033798;28;20057;-72
2023/06/15 10:25:43;;;;;;;0.98;0.88;;;;;;;;;;5031494;28;20037;-72
2023/06/15 10:28:11;;;;;;;1.08;0.98;;;;;;;;;;5032708;28;20030;-72
2023/06/15 10:30:48;;;;;;;0.65;0.65;;;;;;;;;;5030608;28;20087;-71
2023/06/15 10:33:13;;;;;;;11.85;0.52;;;;;;;;;;5048230;28;20030;-72
2023/06/15 10:35:46;;;;;;;0.47;0.47;;;;;;;;;;5034054;28;20128;-75
2023/06/15 10:38:18;;;;;;;0.93;0.85;;;;;;;;;;5034220;28;20028;-71
2023/06/15 10:40:47;;;;;;;0.57;0.57;;;;;;;;;;5030850;28;20131;-75
2023/06/15 10:43:18;;;;;;;0.75;0.57;;;;;;;;;;5031451;28;20028;-72
2023/06/15 10:45:43;;;;;;;0.35;0.35;;;;;;;;;;5036231;28;20037;-71
2023/06/15 10:48:20;;;;;;;0.22;0.22;;;;;;;;;;5033413;28;20032;-73
2023/06/15 10:50:50;;;;;;;0.80;0.80;;;;;;;;;;5034606;28;20060;-77
2023/06/15 10:53:34;;;;;;;0.52;0.52;;;;;;;;;;5035027;28;20048;-72
2023/06/15 10:56:00;;;;;;;0.32;0.32;;;;;;;;;;5029212;28;20607;-75
2023/06/15 10:58:26;;;;;;;0.73;0.73;;;;;;;;;;5032092;28;20032;-73
2023/06/15 11:01:13;;;;;;;0.47;0.28;;;;;;;;;;5031662;28;20083;-77
2023/06/15 11:03:42;;;;;;;0.55;0.52;;;;;;;;;;5029604;28;20060;-71
2023/06/15 11:06:21;;;;;;;0.68;0.45;;;;;;;;;;5039569;28;20067;-76
2023/06/15 11:08:59;;;;;;;0.73;0.68;;;;;;;;;;5033364;28;20120;-74
2023/06/15 11:11:33;;;;;;;0.60;0.57;;;;;;;;;;5031267;28;20034;-70
2023/06/15 11:14:03;;;;;;;0.43;0.30;;;;;;;;;;5029174;28;20033;-70
2023/06/15 11:16:35;;;;;;;0.70;0.60;;;;;;;;;;5031498;28;20037;-71
2023/06/15 11:19:12;;;;;;;0.38;0.35;;;;;;;;;;5037043;28;20448;-70
2023/06/15 11:22:01;;;;;;;0.40;0.40;;;;;;;;;;5038389;28;20100;-73
2023/06/15 11:24:33;;;;;;;0.52;0.52;;;;;;;;;;5032060;28;20045;-70
2023/06/15 11:27:02;;;;;;;0.35;0.35;;;;;;;;;;5033662;28;20048;-73
2023/06/15 11:29:33;;;;;;;0.32;0.28;;;;;;;;;;5033550;28;20029;-70
2023/06/15 11:32:03;;;;;;;0.10;0.10;;;;;;;;;;5034507;28;20053;-74
2023/06/15 11:34:29;;;;;;;0.43;0.35;;;;;;;;;;5040957;28;20299;-74
2023/06/15 11:36:59;;;;;;;0.20;0.20;;;;;;;;;;5037401;28;20028;-73
2023/06/15 11:39:27;;;;;;;0.40;0.40;;;;;;;;;;5048728;28;20094;-75
2023/06/15 11:41:56;;;;;;;0.43;0.30;;;;;;;;;;5033687;28;20021;-75
2023/06/15 11:44:23;;;;;;;0.10;0.10;;;;;;;;;;5035510;28;20026;-77
2023/06/15 11:46:59;;;;;;;0.22;0.22;;;;;;;;;;5036101;28;20481;-77
2023/06/15 11:49:32;;;;;;;0.30;0.30;;;;;;;;;;5036331;28;20071;-75
2023/06/15 11:51:57;;;;;;;0.32;0.32;;;;;;;;;;5035367;28;20107;-76
2023/06/15 11:54:28;;;;;;;1.40;0.98;;;;;;;;;;5053107;28;20657;-73
2023/06/15 11:56:57;;;;;;;0.75;0.40;;;;;;;;;;5036122;28;20025;-72
2023/06/15 11:59:24;;;;;;;0.25;0.25;;;;;;;;;;5035683;28;20450;-72
2023/06/15 12:01:49;;;;;;;0.52;0.50;;;;;;;;;;5035559;28;20025;-73
2023/06/15 12:04:15;;;;;;;0.30;0.30;;;;;;;;;;5037752;28;20029;-75
2023/06/15 12:06:45;;;;;;;0.43;0.35;;;;;;;;;;5039555;28;20408;-74
2023/06/15 12:09:11;;;;;;;0.10;0.10;;;;;;;;;;5033358;28;20029;-75
2023/06/15 12:11:39;;;;;;;0.40;0.30;;;;;;;;;;5034737;28;20075;-71
2023/06/15 12:14:12;;;;;;;0.68;0.45;;;;;;;;;;5035720;28;20040;-73
2023/06/15 12:16:47;;;;;;;0.10;0.10;;;;;;;;;;5033402;28;20033;-74
2023/06/15 12:19:12;;;;;;;0.20;0.20;;;;;;;;;;5031533;28;20401;-72
2023/06/15 12:21:39;;;;;;;0.65;0.65;;;;;;;;;;5031380;28;20112;-71
2023/06/15 12:24:19;;;;;;;0.30;0.30;;;;;;;;;;5031250;28;20461;-72
2023/06/15 12:26:54;;;;;;;0.63;0.20;;;;;;;;;;5036539;28;20022;-74
2023/06/15 12:29:21;;;;;;;0.30;0.30;;;;;;;;;;5036929;28;20033;-73
2023/06/15 12:31:52;;;;;;;0.38;0.38;;;;;;;;;;5037856;28;20037;-73
2023/06/15 12:34:22;;;;;;;;;;;;;;;;;;5033930;28;20030;-72
2023/06/15 12:36:49;;;;;;;0.40;0.40;;;;;;;;;;5041231;28;19912;-75
2023/06/15 12:39:15;;;;;;;0.30;0.30;;;;;;;;;;5037335;28;20385;-75
2023/06/15 12:41:42;;;;;;;0.47;0.40;;;;;;;;;;5038000;28;20026;-73
2023/06/15 12:44:08;;;;;;;1.02;0.93;;;;;;;;;;5036604;28;20045;-73
2023/06/15 12:46:36;;;;;;;0.25;0.25;;;;;;;;;;5038172;28;20243;-73
2023/06/15 12:49:03;;;;;;;1.67;0.95;;;;;;;;;;5035055;28;20031;-73
2023/06/15 12:51:29;;;;;;;0.65;0.45;;;;;;;;;;5035629;28;20440;-73
2023/06/15 12:53:56;;;;;;;0.70;0.50;;;;;;;;;;5037357;28;20049;-72
2023/06/15 12:56:22;;;;;;;0.50;0.50;;;;;;;;;;5038183;28;20031;-72
2023/06/15 12:58:47;;;;;;;0.70;0.43;;;;;;;;;;5036974;28;20315;-73
2023/06/15 13:01:13;;;;;;;0.45;0.40;;;;;;;;;;5038031;28;20055;-75
2023/06/15 13:03:38;;;;;;;0.50;0.50;;;;;;;;;;5034437;28;20025;-71
2023/06/15 13:06:06;;;;;;;0.35;0.30;;;;;;;;;;5035350;28;20064;-72
2023/06/15 13:08:32;;;;;;;0.77;0.70;;;;;;;;;;5030348;28;20036;-73
2023/06/15 13:10:57;;;;;;;2.05;0.80;;;;;;;;;;5030511;28;20026;-76
2023/06/15 13:13:23;;;;;;;1.13;0.20;;;;;;;;;;5033086;28;20029;-74
2023/06/15 13:15:48;;;;;;;0.32;0.25;;;;;;;;;;5034065;28;20055;-74
2023/06/15 13:18:14;;;;;;;0.32;0.30;;;;;;;;;;5032519;28;20557;-71
2023/06/15 13:20:40;;;;;;;0.50;0.50;;;;;;;;;;5036021;28;20034;-79
2023/06/15 13:23:05;;;;;;;0.35;0.35;;;;;;;;;;5038315;28;20021;-75
2023/06/15 13:25:31;;;;;;;0.40;0.40;;;;;;;;;;5034802;28;20029;-71
2023/06/15 13:27:56;;;;;;;0.45;0.45;;;;;;;;;;5035017;28;20033;-74
2023/06/15 13:30:22;;;;;;;0.60;0.57;;;;;;;;;;5052058;28;20018;-71
2023/06/15 13:32:47;;;;;;;0.10;0.10;;;;;;;;;;5041223;28;20036;-72
2023/06/15 13:35:13;;;;;;;0.50;0.50;;;;;;;;;;5040347;28;20024;-73
2023/06/15 13:37:39;;;;;;;1.23;0.68;;;;;;;;;;5037332;28;20021;-78
2023/06/15 13:40:06;;;;;;;0.50;0.50;;;;;;;;;;5039248;28;20092;-71
2023/06/15 13:42:36;;;;;;;0.57;0.57;;;;;;;;;;5038867;28;20056;-73
2023/06/15 13:45:10;;;;;;;0.40;0.40;;;;;;;;;;5040341;28;20328;-71
2023/06/15 13:47:37;;;;;;;0.20;0.20;;;;;;;;;;5054900;28;20026;-72
2023/06/15 13:50:05;;;;;;;0.38;0.38;;;;;;;;;;5038979;28;20064;-72
2023/06/15 13:52:31;;;;;;;0.17;0.17;;;;;;;;;;5039746;28;20040;-72
2023/06/15 13:54:58;;;;;;;0.32;0.32;;;;;;;;;;5039426;28;20026;-73
2023/06/15 13:57:23;;;;;;;2.10;0.80;;;;;;;;;;5039150;28;20028;-73
2023/06/15 13:59:49;;;;;;;0.50;0.50;;;;;;;;;;5040794;28;20029;-72
2023/06/15 14:02:15;;;;;;;1.85;0.50;;;;;;;;;;5040044;28;20093;-72
2023/06/15 14:04:40;;;;;;;0.40;0.40;;;;;;;;;;5037401;28;20033;-71
2023/06/15 14:07:06;;;;;;;0.10;0.10;;;;;;;;;;5040226;28;20132;-73
2023/06/15 14:09:31;;;;;;;0.63;0.50;;;;;;;;;;5040907;28;20088;-72
2023/06/15 14:11:58;;;;;;;0.40;0.35;;;;;;;;;;5038464;28;20347;-71
2023/06/15 14:14:27;;;;;;;0.50;0.47;;;;;;;;;;5049167;28;20029;-72
2023/06/15 14:16:56;;;;;;;0.30;0.22;;;;;;;;;;5038343;28;20336;-71
2023/06/15 14:19:23;;;;;;;0.45;0.40;;;;;;;;;;5040512;28;20033;-71
2023/06/15 14:21:49;;;;;;;0.45;0.40;;;;;;;;;;5040580;28;20317;-75
2023/06/15 14:24:15;;;;;;;1.52;0.68;;;;;;;;;;5036852;28;20096;-73
2023/06/15 14:26:41;;;;;;;0.43;0.38;;;;;;;;;;5037617;28;20021;-71
2023/06/15 14:29:09;;;;;;;0.43;0.43;;;;;;;;;;5038589;28;20120;-72
2023/06/15 14:31:35;;;;;;;0.15;0.15;;;;;;;;;;5037688;28;20365;-71
2023/06/15 14:34:01;;;;;;;0.40;0.40;;;;;;;;;;5037161;28;20033;-72
2023/06/15 14:36:26;;;;;;;0.45;0.40;;;;;;;;;;5039104;28;20694;-72
2023/06/15 14:38:51;;;;;;;0.10;0.10;;;;;;;;;;5039814;28;20018;-76
2023/06/15 14:41:17;;;;;;;0.80;0.40;;;;;;;;;;5034451;28;20336;-75
2023/06/15 14:43:42;;;;;;;0.35;0.32;;;;;;;;;;5038026;28;20105;-72